Time;durP1;ratioP1;P1;durP2;ratioP2;P2;SDS_P1;SDS_P2;PMS_P1;PMS_P2;Temp;Humidity;BMP_temperature;BMP_pressure;BME280_temperature;BME280_humidity;BME280_pressure;Samples;Min_cycle;Max_cycle;Signal;HPM_P1;HPM_P2
2022/01/06 00:01:35;;;;;;;0.00;0.00;;;;;;;;;;5026711;28;20207;-74
2022/01/06 00:04:02;;;;;;;0.00;0.00;;;;;;;;;;5013352;28;20209;-74
2022/01/06 00:06:32;;;;;;;0.00;0.00;;;;;;;;;;5016308;28;20235;-74
2022/01/06 00:09:01;;;;;;;0.00;0.00;;;;;;;;;;5015127;28;20224;-73
2022/01/06 00:11:29;;;;;;;0.00;0.00;;;;;;;;;;5021685;28;20208;-73
2022/01/06 00:14:01;;;;;;;0.00;0.00;;;;;;;;;;5016984;28;20197;-74
2022/01/06 00:16:37;;;;;;;0.00;0.00;;;;;;;;;;5014705;28;20200;-73
2022/01/06 00:24:36;;;;;;;0.00;0.00;;;;;;;;;;5013618;28;20497;-73
2022/01/06 00:27:03;;;;;;;0.00;0.00;;;;;;;;;;5016133;28;20207;-75
2022/01/06 00:29:31;;;;;;;0.10;0.10;;;;;;;;;;5015286;28;20208;-73
2022/01/06 00:31:58;;;;;;;0.10;0.10;;;;;;;;;;5015566;28;20211;-73
2022/01/06 00:34:27;;;;;;;0.00;0.00;;;;;;;;;;5017769;28;20213;-73
2022/01/06 00:36:55;;;;;;;0.30;0.30;;;;;;;;;;5015040;28;20287;-74
2022/01/06 00:39:27;;;;;;;3.50;0.20;;;;;;;;;;5015616;28;20223;-74
2022/01/06 00:41:58;;;;;;;0.00;0.00;;;;;;;;;;5014911;28;20220;-73
2022/01/06 00:44:25;;;;;;;0.00;0.00;;;;;;;;;;5013217;28;20211;-74
2022/01/06 00:46:52;;;;;;;0.00;0.00;;;;;;;;;;5016020;28;20674;-73
2022/01/06 00:49:21;;;;;;;0.00;0.00;;;;;;;;;;5015332;28;20205;-75
2022/01/06 00:51:49;;;;;;;0.30;0.30;;;;;;;;;;5011071;28;20301;-73
2022/01/06 00:54:17;;;;;;;0.33;0.33;;;;;;;;;;5014611;28;20741;-74
2022/01/06 00:56:44;;;;;;;0.57;0.20;;;;;;;;;;5018257;28;20200;-73
2022/01/06 00:59:11;;;;;;;0.00;0.00;;;;;;;;;;5017641;28;20211;-75
2022/01/06 01:01:39;;;;;;;0.83;0.27;;;;;;;;;;5023334;28;20580;-75
2022/01/06 01:04:06;;;;;;;0.00;0.00;;;;;;;;;;5018142;28;20200;-75
2022/01/06 01:06:34;;;;;;;0.00;0.00;;;;;;;;;;5014223;28;20834;-74
2022/01/06 01:09:03;;;;;;;0.00;0.00;;;;;;;;;;5014433;28;20211;-74
2022/01/06 01:11:30;;;;;;;0.00;0.00;;;;;;;;;;5024015;28;20205;-73
2022/01/06 01:14:07;;;;;;;0.00;0.00;;;;;;;;;;5012406;28;20208;-72
2022/01/06 01:16:35;;;;;;;0.00;0.00;;;;;;;;;;5013673;28;20602;-72
2022/01/06 01:19:08;;;;;;;0.10;0.10;;;;;;;;;;5014067;28;20203;-72
2022/01/06 01:21:36;;;;;;;0.30;0.10;;;;;;;;;;5018337;28;20705;-73
2022/01/06 01:24:05;;;;;;;0.67;0.27;;;;;;;;;;5014750;28;20204;-74
2022/01/06 01:26:32;;;;;;;0.00;0.00;;;;;;;;;;5015373;28;20227;-72
2022/01/06 01:28:59;;;;;;;0.00;0.00;;;;;;;;;;5014824;28;20226;-72
2022/01/06 01:31:31;;;;;;;0.00;0.00;;;;;;;;;;5015307;28;20294;-74
2022/01/06 01:34:06;;;;;;;0.00;0.00;;;;;;;;;;5015710;28;20258;-73
2022/01/06 01:36:33;;;;;;;0.00;0.00;;;;;;;;;;5015157;28;20295;-72
2022/01/06 01:39:01;;;;;;;0.00;0.00;;;;;;;;;;5013708;28;20299;-73
2022/01/06 01:41:30;;;;;;;0.00;0.00;;;;;;;;;;5017322;28;20561;-75
2022/01/06 01:43:57;;;;;;;0.00;0.00;;;;;;;;;;5022530;28;20211;-72
2022/01/06 01:46:29;;;;;;;0.00;0.00;;;;;;;;;;5026280;28;20236;-73
2022/01/06 01:49:13;;;;;;;0.00;0.00;;;;;;;;;;5014076;28;20204;-73
2022/01/06 01:51:40;;;;;;;0.00;0.00;;;;;;;;;;5013191;28;20204;-75
2022/01/06 01:54:08;;;;;;;0.00;0.00;;;;;;;;;;5010726;28;20201;-74
2022/01/06 01:56:38;;;;;;;0.00;0.00;;;;;;;;;;5014677;28;20200;-74
2022/01/06 01:59:06;;;;;;;0.00;0.00;;;;;;;;;;5014825;28;20213;-73
2022/01/06 02:01:33;;;;;;;0.00;0.00;;;;;;;;;;5019905;28;21014;-73
2022/01/06 02:04:01;;;;;;;0.00;0.00;;;;;;;;;;5013426;28;20216;-74
2022/01/06 02:06:28;;;;;;;0.00;0.00;;;;;;;;;;5013279;28;20244;-73
2022/01/06 02:08:55;;;;;;;0.00;0.00;;;;;;;;;;5011191;28;20681;-73
2022/01/06 02:11:23;;;;;;;0.00;0.00;;;;;;;;;;5021258;28;20211;-73
2022/01/06 02:13:53;;;;;;;0.00;0.00;;;;;;;;;;5019870;28;20216;-75
2022/01/06 02:16:21;;;;;;;0.00;0.00;;;;;;;;;;5012096;28;21032;-72
2022/01/06 02:18:48;;;;;;;0.00;0.00;;;;;;;;;;5018110;28;20255;-73
2022/01/06 02:21:17;;;;;;;0.00;0.00;;;;;;;;;;5015431;28;20236;-74
2022/01/06 02:23:45;;;;;;;0.00;0.00;;;;;;;;;;5014430;28;20696;-72
2022/01/06 02:26:13;;;;;;;0.00;0.00;;;;;;;;;;5011384;28;20242;-73
2022/01/06 02:28:41;;;;;;;0.00;0.00;;;;;;;;;;5013883;28;20208;-73
2022/01/06 02:31:08;;;;;;;0.00;0.00;;;;;;;;;;5025116;28;20207;-74
2022/01/06 02:33:36;;;;;;;0.07;0.07;;;;;;;;;;5021399;28;20200;-74
2022/01/06 02:36:04;;;;;;;0.00;0.00;;;;;;;;;;5025837;28;20211;-73
2022/01/06 02:38:34;;;;;;;0.00;0.00;;;;;;;;;;5025844;28;20660;-74
2022/01/06 02:41:02;;;;;;;0.00;0.00;;;;;;;;;;5021237;28;20677;-73
2022/01/06 02:43:31;;;;;;;0.00;0.00;;;;;;;;;;5024854;28;20228;-73
2022/01/06 02:45:58;;;;;;;0.00;0.00;;;;;;;;;;5026747;28;20240;-72
2022/01/06 02:48:25;;;;;;;0.00;0.00;;;;;;;;;;5025688;28;20723;-74
2022/01/06 02:50:53;;;;;;;0.00;0.00;;;;;;;;;;5016998;28;20213;-72
2022/01/06 02:53:20;;;;;;;0.00;0.00;;;;;;;;;;5018289;28;20231;-72
2022/01/06 02:55:52;;;;;;;0.00;0.00;;;;;;;;;;5017874;28;20204;-74
2022/01/06 02:58:20;;;;;;;0.00;0.00;;;;;;;;;;5016194;28;20196;-73
2022/01/06 03:00:47;;;;;;;0.00;0.00;;;;;;;;;;5030368;28;20228;-74
2022/01/06 03:03:15;;;;;;;0.00;0.00;;;;;;;;;;5024953;28;20209;-74
2022/01/06 03:05:42;;;;;;;0.00;0.00;;;;;;;;;;5022240;28;20927;-72
2022/01/06 03:08:09;;;;;;;0.00;0.00;;;;;;;;;;5024036;28;20612;-74
2022/01/06 03:10:41;;;;;;;0.00;0.00;;;;;;;;;;5021954;28;20227;-73
2022/01/06 03:13:10;;;;;;;0.00;0.00;;;;;;;;;;5020555;28;20259;-70
2022/01/06 03:15:38;;;;;;;0.00;0.00;;;;;;;;;;5024857;28;20488;-73
2022/01/06 03:18:05;;;;;;;0.00;0.00;;;;;;;;;;5024111;28;20643;-73
2022/01/06 03:20:34;;;;;;;0.00;0.00;;;;;;;;;;5022365;28;20239;-74
2022/01/06 03:23:02;;;;;;;0.00;0.00;;;;;;;;;;5031220;28;20206;-73
2022/01/06 03:25:29;;;;;;;0.00;0.00;;;;;;;;;;5030838;28;20207;-74
2022/01/06 03:27:57;;;;;;;0.00;0.00;;;;;;;;;;5019856;28;20201;-73
2022/01/06 03:30:26;;;;;;;0.00;0.00;;;;;;;;;;5028900;28;20200;-72
2022/01/06 03:32:54;;;;;;;0.00;0.00;;;;;;;;;;5015424;28;20688;-73
2022/01/06 03:35:22;;;;;;;0.00;0.00;;;;;;;;;;5016304;28;20204;-73
2022/01/06 03:37:50;;;;;;;0.00;0.00;;;;;;;;;;5016119;28;20219;-73
2022/01/06 03:40:17;;;;;;;0.00;0.00;;;;;;;;;;5017418;28;20205;-74
2022/01/06 03:42:45;;;;;;;0.00;0.00;;;;;;;;;;5018971;28;20203;-73
2022/01/06 03:45:14;;;;;;;0.00;0.00;;;;;;;;;;5013128;28;20208;-72
2022/01/06 03:47:42;;;;;;;0.00;0.00;;;;;;;;;;5016309;28;20224;-73
2022/01/06 03:50:11;;;;;;;0.00;0.00;;;;;;;;;;5016786;28;20224;-73
2022/01/06 03:52:38;;;;;;;0.00;0.00;;;;;;;;;;5017237;28;20684;-72
2022/01/06 03:55:07;;;;;;;0.00;0.00;;;;;;;;;;5017304;28;20200;-73
2022/01/06 03:57:35;;;;;;;0.00;0.00;;;;;;;;;;5016122;28;20235;-74
2022/01/06 04:00:02;;;;;;;0.00;0.00;;;;;;;;;;5017439;28;21921;-73
2022/01/06 04:02:30;;;;;;;0.00;0.00;;;;;;;;;;5021158;28;20196;-73
2022/01/06 04:04:58;;;;;;;0.00;0.00;;;;;;;;;;5015845;28;20671;-72
2022/01/06 04:07:26;;;;;;;0.00;0.00;;;;;;;;;;5014614;28;20227;-73
2022/01/06 04:09:53;;;;;;;0.00;0.00;;;;;;;;;;5019042;28;20217;-72
2022/01/06 04:12:21;;;;;;;0.00;0.00;;;;;;;;;;5018720;28;20211;-73
2022/01/06 04:14:48;;;;;;;0.00;0.00;;;;;;;;;;5013435;28;20212;-72
2022/01/06 04:17:15;;;;;;;0.00;0.00;;;;;;;;;;5017059;28;20196;-73
2022/01/06 04:19:43;;;;;;;0.00;0.00;;;;;;;;;;5017263;28;20559;-72
2022/01/06 04:22:11;;;;;;;0.00;0.00;;;;;;;;;;5016346;28;20724;-72
2022/01/06 04:24:39;;;;;;;0.00;0.00;;;;;;;;;;5018599;28;20203;-73
2022/01/06 04:27:06;;;;;;;0.00;0.00;;;;;;;;;;5015352;28;20604;-73
2022/01/06 04:29:33;;;;;;;0.00;0.00;;;;;;;;;;5016468;28;20208;-73
2022/01/06 04:32:01;;;;;;;1.03;0.23;;;;;;;;;;5017205;28;20220;-72
2022/01/06 04:34:28;;;;;;;0.17;0.10;;;;;;;;;;5017505;28;20665;-72
2022/01/06 04:36:58;;;;;;;0.00;0.00;;;;;;;;;;5014551;28;20892;-71
2022/01/06 04:39:27;;;;;;;0.00;0.00;;;;;;;;;;5016690;28;20201;-72
2022/01/06 04:41:54;;;;;;;0.00;0.00;;;;;;;;;;5016435;28;20201;-73
2022/01/06 04:44:21;;;;;;;0.00;0.00;;;;;;;;;;5015961;28;20212;-72
2022/01/06 04:46:49;;;;;;;0.00;0.00;;;;;;;;;;5015586;28;20764;-72
2022/01/06 04:49:17;;;;;;;0.00;0.00;;;;;;;;;;5015076;28;20661;-74
2022/01/06 04:51:44;;;;;;;0.00;0.00;;;;;;;;;;5014549;28;20213;-73
2022/01/06 04:54:13;;;;;;;0.00;0.00;;;;;;;;;;5016562;28;20204;-73
2022/01/06 04:56:42;;;;;;;0.00;0.00;;;;;;;;;;5018983;28;20561;-72
2022/01/06 04:59:10;;;;;;;0.00;0.00;;;;;;;;;;5014780;28;20317;-72
2022/01/06 05:01:38;;;;;;;0.00;0.00;;;;;;;;;;5015585;28;20200;-72
2022/01/06 05:04:05;;;;;;;0.00;0.00;;;;;;;;;;5013540;28;20662;-73
2022/01/06 05:06:33;;;;;;;0.07;0.07;;;;;;;;;;5017616;28;20223;-72
2022/01/06 05:09:00;;;;;;;0.00;0.00;;;;;;;;;;5015066;28;21616;-72
2022/01/06 05:11:28;;;;;;;0.00;0.00;;;;;;;;;;5015725;28;20222;-73
2022/01/06 05:13:57;;;;;;;0.00;0.00;;;;;;;;;;5019410;28;20216;-73
2022/01/06 05:16:24;;;;;;;0.00;0.00;;;;;;;;;;5014435;28;20548;-73
2022/01/06 05:18:52;;;;;;;0.00;0.00;;;;;;;;;;5013298;28;20654;-72
2022/01/06 05:21:19;;;;;;;0.00;0.00;;;;;;;;;;5014056;28;20232;-72
2022/01/06 05:23:49;;;;;;;0.00;0.00;;;;;;;;;;5013702;28;20219;-72
2022/01/06 05:26:16;;;;;;;0.73;0.30;;;;;;;;;;5015812;28;20239;-73
2022/01/06 05:28:43;;;;;;;0.00;0.00;;;;;;;;;;5015481;28;20198;-71
2022/01/06 05:31:12;;;;;;;0.00;0.00;;;;;;;;;;5014761;28;20207;-73
2022/01/06 05:33:39;;;;;;;0.00;0.00;;;;;;;;;;5016137;28;20200;-72
2022/01/06 05:36:07;;;;;;;0.00;0.00;;;;;;;;;;5013827;28;20673;-72
2022/01/06 05:38:34;;;;;;;0.00;0.00;;;;;;;;;;5015703;28;20216;-71
2022/01/06 05:41:02;;;;;;;0.00;0.00;;;;;;;;;;5015986;28;20211;-73
2022/01/06 05:43:29;;;;;;;0.00;0.00;;;;;;;;;;5018214;28;20215;-73
2022/01/06 05:45:57;;;;;;;0.00;0.00;;;;;;;;;;5015419;28;20223;-72
2022/01/06 05:48:26;;;;;;;0.00;0.00;;;;;;;;;;5016430;28;20216;-73
2022/01/06 05:50:54;;;;;;;0.00;0.00;;;;;;;;;;5014734;28;20662;-73
2022/01/06 05:53:21;;;;;;;0.00;0.00;;;;;;;;;;5014069;28;21948;-75
2022/01/06 05:55:49;;;;;;;0.00;0.00;;;;;;;;;;5016279;28;20218;-74
2022/01/06 05:58:16;;;;;;;0.00;0.00;;;;;;;;;;5015395;28;20212;-74
2022/01/06 06:00:44;;;;;;;0.00;0.00;;;;;;;;;;5015247;28;20204;-74
2022/01/06 06:03:11;;;;;;;0.00;0.00;;;;;;;;;;5014560;28;20208;-74
2022/01/06 06:05:42;;;;;;;0.00;0.00;;;;;;;;;;5015423;28;20207;-74
2022/01/06 06:08:09;;;;;;;0.10;0.00;;;;;;;;;;5013229;28;20228;-74
2022/01/06 06:10:37;;;;;;;0.00;0.00;;;;;;;;;;5014099;28;20303;-73
2022/01/06 06:13:04;;;;;;;0.00;0.00;;;;;;;;;;5013256;28;20303;-75
2022/01/06 06:15:35;;;;;;;0.00;0.00;;;;;;;;;;5014069;28;20223;-72
2022/01/06 06:18:02;;;;;;;0.10;0.10;;;;;;;;;;5014103;28;20196;-73
2022/01/06 06:20:30;;;;;;;0.00;0.00;;;;;;;;;;5016453;28;20254;-71
2022/01/06 06:22:58;;;;;;;0.00;0.00;;;;;;;;;;5013559;28;20237;-74
2022/01/06 06:25:26;;;;;;;0.00;0.00;;;;;;;;;;5014528;28;20215;-74
2022/01/06 06:27:54;;;;;;;0.00;0.00;;;;;;;;;;5013607;28;20228;-73
2022/01/06 06:30:21;;;;;;;0.00;0.00;;;;;;;;;;5022829;28;20200;-73
2022/01/06 06:32:48;;;;;;;0.00;0.00;;;;;;;;;;5020972;28;20211;-72
2022/01/06 06:35:16;;;;;;;0.00;0.00;;;;;;;;;;5027887;28;20200;-72
2022/01/06 06:37:43;;;;;;;0.00;0.00;;;;;;;;;;5022160;28;20568;-72
2022/01/06 06:40:13;;;;;;;0.00;0.00;;;;;;;;;;5030133;28;20207;-71
2022/01/06 06:42:40;;;;;;;0.00;0.00;;;;;;;;;;5029278;28;20196;-73
2022/01/06 06:45:09;;;;;;;0.00;0.00;;;;;;;;;;5029712;28;20568;-73
2022/01/06 06:47:37;;;;;;;0.00;0.00;;;;;;;;;;5024793;28;20234;-72
2022/01/06 06:50:04;;;;;;;0.00;0.00;;;;;;;;;;5027762;28;20974;-72
2022/01/06 06:52:32;;;;;;;0.00;0.00;;;;;;;;;;5027419;28;20196;-73
2022/01/06 06:54:59;;;;;;;0.00;0.00;;;;;;;;;;5022650;28;20212;-72
2022/01/06 06:57:28;;;;;;;0.00;0.00;;;;;;;;;;5031073;28;20200;-72
2022/01/06 06:59:56;;;;;;;0.00;0.00;;;;;;;;;;5027000;28;20203;-73
2022/01/06 07:02:24;;;;;;;0.00;0.00;;;;;;;;;;5029287;28;20303;-73
2022/01/06 07:04:51;;;;;;;0.00;0.00;;;;;;;;;;5026975;28;20207;-73
2022/01/06 07:07:19;;;;;;;0.00;0.00;;;;;;;;;;5026049;28;20232;-73
2022/01/06 07:09:46;;;;;;;0.00;0.00;;;;;;;;;;5023486;28;20207;-72
2022/01/06 07:12:13;;;;;;;0.00;0.00;;;;;;;;;;5022970;28;20215;-72
2022/01/06 07:14:42;;;;;;;0.00;0.00;;;;;;;;;;5026119;28;20204;-73
2022/01/06 07:17:10;;;;;;;0.00;0.00;;;;;;;;;;5020178;28;20209;-71
2022/01/06 07:19:37;;;;;;;0.00;0.00;;;;;;;;;;5034061;28;20729;-74
2022/01/06 07:22:05;;;;;;;0.00;0.00;;;;;;;;;;5029886;28;20259;-73
2022/01/06 07:24:32;;;;;;;0.00;0.00;;;;;;;;;;5029169;28;20204;-73
2022/01/06 07:27:00;;;;;;;0.00;0.00;;;;;;;;;;5018781;28;20748;-72
2022/01/06 07:29:28;;;;;;;0.00;0.00;;;;;;;;;;5018908;28;20236;-75
2022/01/06 07:31:57;;;;;;;0.00;0.00;;;;;;;;;;5015958;28;21395;-72
2022/01/06 07:34:24;;;;;;;0.00;0.00;;;;;;;;;;5023073;28;20661;-73
2022/01/06 07:36:52;;;;;;;0.00;0.00;;;;;;;;;;5025957;28;20199;-71
2022/01/06 07:39:19;;;;;;;0.00;0.00;;;;;;;;;;5028008;28;20229;-74
2022/01/06 07:41:47;;;;;;;0.00;0.00;;;;;;;;;;5025858;28;20205;-72
2022/01/06 07:44:14;;;;;;;0.00;0.00;;;;;;;;;;5032867;28;20599;-73
2022/01/06 07:46:43;;;;;;;0.00;0.00;;;;;;;;;;5020304;28;20196;-72
2022/01/06 07:49:12;;;;;;;0.00;0.00;;;;;;;;;;5019956;28;21016;-72
2022/01/06 07:51:39;;;;;;;0.00;0.00;;;;;;;;;;5018915;28;20279;-73
2022/01/06 07:54:07;;;;;;;0.00;0.00;;;;;;;;;;5016815;28;20208;-73
2022/01/06 07:56:34;;;;;;;0.00;0.00;;;;;;;;;;5018257;28;20204;-72
2022/01/06 07:59:01;;;;;;;0.00;0.00;;;;;;;;;;5018806;28;20567;-76
2022/01/06 08:01:29;;;;;;;0.00;0.00;;;;;;;;;;5017987;28;20212;-74
2022/01/06 08:03:56;;;;;;;0.00;0.00;;;;;;;;;;5012047;28;20219;-74
2022/01/06 08:06:25;;;;;;;0.00;0.00;;;;;;;;;;5009321;28;20507;-73
2022/01/06 08:08:52;;;;;;;0.00;0.00;;;;;;;;;;5011953;28;20231;-74
2022/01/06 08:11:20;;;;;;;0.00;0.00;;;;;;;;;;5024818;28;20213;-75
2022/01/06 08:13:47;;;;;;;0.00;0.00;;;;;;;;;;5019086;28;20200;-73
2022/01/06 08:16:14;;;;;;;0.00;0.00;;;;;;;;;;5016735;28;20204;-73
2022/01/06 08:18:42;;;;;;;0.00;0.00;;;;;;;;;;5018349;28;20224;-76
2022/01/06 08:21:09;;;;;;;0.00;0.00;;;;;;;;;;5018409;28;20246;-74
2022/01/06 08:23:38;;;;;;;0.00;0.00;;;;;;;;;;5019716;28;20207;-74
2022/01/06 08:26:06;;;;;;;0.00;0.00;;;;;;;;;;5014746;28;20208;-72
2022/01/06 08:28:33;;;;;;;0.00;0.00;;;;;;;;;;5019598;28;20228;-73
2022/01/06 08:31:00;;;;;;;0.00;0.00;;;;;;;;;;5021372;28;20224;-71
2022/01/06 08:33:28;;;;;;;0.00;0.00;;;;;;;;;;5018929;28;20213;-74
2022/01/06 08:35:55;;;;;;;0.00;0.00;;;;;;;;;;5019378;28;20209;-77
2022/01/06 08:38:23;;;;;;;0.00;0.00;;;;;;;;;;5018582;28;20574;-72
2022/01/06 08:40:53;;;;;;;0.00;0.00;;;;;;;;;;5013137;28;20215;-72
2022/01/06 08:43:27;;;;;;;0.00;0.00;;;;;;;;;;5014411;28;20217;-80
2022/01/06 08:45:54;;;;;;;0.00;0.00;;;;;;;;;;5014034;28;20197;-79
2022/01/06 08:48:22;;;;;;;0.00;0.00;;;;;;;;;;5014553;28;20220;-78
2022/01/06 08:50:49;;;;;;;0.00;0.00;;;;;;;;;;5016699;28;20208;-78
2022/01/06 08:53:17;;;;;;;0.00;0.00;;;;;;;;;;5014937;28;20208;-75
2022/01/06 08:55:46;;;;;;;0.00;0.00;;;;;;;;;;5013477;28;20880;-74
2022/01/06 08:58:16;;;;;;;0.00;0.00;;;;;;;;;;5019312;28;20201;-73
2022/01/06 09:00:43;;;;;;;0.00;0.00;;;;;;;;;;5019062;28;20200;-72
2022/01/06 09:03:11;;;;;;;0.00;0.00;;;;;;;;;;5018195;28;20709;-73
2022/01/06 09:05:38;;;;;;;0.00;0.00;;;;;;;;;;5020851;28;20213;-72
2022/01/06 09:08:06;;;;;;;0.00;0.00;;;;;;;;;;5018713;28;20224;-71
2022/01/06 09:10:34;;;;;;;0.00;0.00;;;;;;;;;;5019122;28;20201;-75
2022/01/06 09:13:01;;;;;;;0.00;0.00;;;;;;;;;;5022036;28;20237;-75
2022/01/06 09:15:30;;;;;;;0.00;0.00;;;;;;;;;;5017122;28;20663;-74
2022/01/06 09:17:58;;;;;;;0.00;0.00;;;;;;;;;;5017904;28;20299;-75
2022/01/06 09:20:25;;;;;;;0.00;0.00;;;;;;;;;;5017727;28;20196;-74
2022/01/06 09:22:53;;;;;;;0.00;0.00;;;;;;;;;;5018169;28;20192;-72
2022/01/06 09:25:20;;;;;;;0.00;0.00;;;;;;;;;;5020413;28;20200;-80
2022/01/06 09:27:48;;;;;;;0.00;0.00;;;;;;;;;;5014699;28;20243;-80
2022/01/06 09:30:15;;;;;;;0.00;0.00;;;;;;;;;;5014340;28;20200;-75
2022/01/06 09:32:44;;;;;;;0.00;0.00;;;;;;;;;;5012023;28;20196;-80
2022/01/06 09:35:11;;;;;;;0.00;0.00;;;;;;;;;;5014074;28;20204;-80
2022/01/06 09:37:39;;;;;;;0.00;0.00;;;;;;;;;;5014082;28;20196;-78
2022/01/06 09:40:09;;;;;;;0.00;0.00;;;;;;;;;;5010720;28;20205;-76
2022/01/06 09:42:37;;;;;;;0.00;0.00;;;;;;;;;;5013891;28;20216;-72
2022/01/06 09:45:05;;;;;;;0.00;0.00;;;;;;;;;;5018263;28;22067;-73
2022/01/06 09:47:33;;;;;;;0.00;0.00;;;;;;;;;;5012628;28;20649;-72
2022/01/06 09:50:02;;;;;;;0.00;0.00;;;;;;;;;;5011250;28;20207;-71
2022/01/06 09:52:29;;;;;;;0.00;0.00;;;;;;;;;;5017526;28;20197;-71
2022/01/06 09:54:56;;;;;;;0.00;0.00;;;;;;;;;;5017158;28;20208;-74
2022/01/06 09:57:24;;;;;;;0.00;0.00;;;;;;;;;;5024300;28;20204;-75
2022/01/06 09:59:51;;;;;;;0.00;0.00;;;;;;;;;;5020803;28;20208;-75
2022/01/06 10:02:18;;;;;;;0.00;0.00;;;;;;;;;;5020308;28;20204;-83
2022/01/06 10:04:48;;;;;;;0.00;0.00;;;;;;;;;;5020423;28;20197;-80
2022/01/06 10:07:17;;;;;;;0.10;0.10;;;;;;;;;;5020498;28;20204;-83
2022/01/06 10:09:45;;;;;;;0.63;0.13;;;;;;;;;;5022760;28;20232;-78
2022/01/06 10:12:13;;;;;;;0.00;0.00;;;;;;;;;;5020932;28;20227;-71
2022/01/06 10:14:42;;;;;;;0.17;0.17;;;;;;;;;;5019617;28;20215;-73
2022/01/06 10:17:10;;;;;;;0.43;0.43;;;;;;;;;;5021646;28;20205;-77
2022/01/06 10:19:40;;;;;;;0.00;0.00;;;;;;;;;;5020959;28;20208;-73
2022/01/06 10:22:13;;;;;;;0.50;0.40;;;;;;;;;;5019485;28;20234;-82
2022/01/06 10:24:45;;;;;;;0.00;0.00;;;;;;;;;;5019657;28;20196;-74
2022/01/06 10:27:13;;;;;;;0.00;0.00;;;;;;;;;;5023108;28;20208;-70
2022/01/06 10:29:42;;;;;;;0.00;0.00;;;;;;;;;;5019076;28;20586;-73
2022/01/06 10:32:11;;;;;;;0.77;0.77;;;;;;;;;;5020180;28;21486;-72
2022/01/06 10:34:39;;;;;;;0.10;0.10;;;;;;;;;;5023413;28;20219;-75
2022/01/06 10:37:17;;;;;;;0.00;0.00;;;;;;;;;;5025544;28;20200;-73
2022/01/06 10:39:48;;;;;;;0.00;0.00;;;;;;;;;;5018920;28;20204;-73
2022/01/06 10:42:15;;;;;;;0.00;0.00;;;;;;;;;;5020243;28;20207;-76
2022/01/06 10:44:47;;;;;;;0.00;0.00;;;;;;;;;;5020580;28;20212;-75
2022/01/06 10:47:15;;;;;;;0.00;0.00;;;;;;;;;;5019151;28;20205;-75
2022/01/06 10:49:45;;;;;;;0.27;0.10;;;;;;;;;;5031077;28;20733;-67
2022/01/06 10:52:15;;;;;;;0.00;0.00;;;;;;;;;;5034296;28;20212;-71
2022/01/06 10:54:43;;;;;;;0.30;0.30;;;;;;;;;;5020202;28;20207;-71
2022/01/06 10:57:12;;;;;;;0.00;0.00;;;;;;;;;;5017638;28;20535;-71
2022/01/06 10:59:39;;;;;;;0.10;0.10;;;;;;;;;;5024771;28;21386;-69
2022/01/06 11:02:07;;;;;;;0.17;0.17;;;;;;;;;;5028785;28;20204;-70
2022/01/06 11:04:34;;;;;;;0.00;0.00;;;;;;;;;;5023867;28;20596;-70
2022/01/06 11:07:04;;;;;;;0.10;0.10;;;;;;;;;;5031075;28;20212;-70
2022/01/06 11:09:32;;;;;;;0.00;0.00;;;;;;;;;;5034499;28;20228;-71
2022/01/06 11:14:47;;;;;;;0.00;0.00;;;;;;;;;;5026140;28;20228;-70
2022/01/06 11:17:14;;;;;;;0.00;0.00;;;;;;;;;;5026597;28;20569;-70
2022/01/06 11:19:42;;;;;;;0.00;0.00;;;;;;;;;;5027324;28;20204;-69
2022/01/06 11:22:13;;;;;;;0.00;0.00;;;;;;;;;;5025019;28;20232;-70
2022/01/06 11:24:41;;;;;;;0.20;0.20;;;;;;;;;;5027549;28;21576;-70
2022/01/06 11:27:11;;;;;;;0.00;0.00;;;;;;;;;;5030130;28;20561;-70
2022/01/06 11:29:40;;;;;;;0.00;0.00;;;;;;;;;;5030737;28;20231;-70
2022/01/06 11:32:20;;;;;;;0.00;0.00;;;;;;;;;;5031291;28;20215;-69
2022/01/06 11:34:47;;;;;;;0.00;0.00;;;;;;;;;;5029878;28;20821;-69
2022/01/06 11:37:16;;;;;;;0.10;0.10;;;;;;;;;;5023309;28;20216;-70
2022/01/06 11:39:44;;;;;;;1.77;0.30;;;;;;;;;;5024924;28;20201;-78
2022/01/06 11:42:15;;;;;;;0.20;0.20;;;;;;;;;;5027315;28;20196;-80
2022/01/06 11:44:50;;;;;;;0.53;0.23;;;;;;;;;;5029103;28;20234;-71
2022/01/06 11:47:29;;;;;;;2.17;0.87;;;;;;;;;;5032277;28;20211;-75
2022/01/06 11:50:07;;;;;;;0.00;0.00;;;;;;;;;;5030453;28;20697;-73
2022/01/06 11:52:34;;;;;;;0.53;0.40;;;;;;;;;;5029093;28;20688;-73
2022/01/06 11:55:04;;;;;;;0.07;0.00;;;;;;;;;;5029291;28;20208;-74
2022/01/06 11:57:33;;;;;;;0.13;0.03;;;;;;;;;;5031697;28;20581;-75
2022/01/06 12:00:01;;;;;;;0.20;0.20;;;;;;;;;;5029286;28;20279;-74
2022/01/06 12:02:30;;;;;;;0.07;0.07;;;;;;;;;;5030769;28;20291;-72
2022/01/06 12:04:59;;;;;;;0.77;0.77;;;;;;;;;;5027792;28;20301;-76
2022/01/06 12:07:27;;;;;;;0.93;0.87;;;;;;;;;;5029257;28;20204;-75
2022/01/06 12:09:58;;;;;;;0.30;0.30;;;;;;;;;;5027206;28;20231;-74
2022/01/06 12:12:32;;;;;;;0.93;0.33;;;;;;;;;;5031117;28;20204;-75
2022/01/06 12:15:06;;;;;;;0.00;0.00;;;;;;;;;;5029101;28;20196;-75
2022/01/06 12:17:35;;;;;;;0.00;0.00;;;;;;;;;;5026473;28;20208;-76
2022/01/06 12:20:04;;;;;;;0.10;0.10;;;;;;;;;;5028516;28;20581;-75
2022/01/06 12:22:32;;;;;;;0.30;0.30;;;;;;;;;;5030364;28;20319;-79
2022/01/06 12:25:00;;;;;;;0.03;0.00;;;;;;;;;;5029796;28;20215;-74
2022/01/06 12:27:27;;;;;;;0.30;0.30;;;;;;;;;;5027612;28;20200;-77
2022/01/06 12:29:56;;;;;;;0.97;0.60;;;;;;;;;;5031090;28;20231;-78
2022/01/06 12:32:23;;;;;;;0.20;0.20;;;;;;;;;;5029553;28;20254;-74
2022/01/06 12:34:56;;;;;;;0.47;0.47;;;;;;;;;;5028415;28;20212;-76
2022/01/06 12:37:27;;;;;;;1.80;0.67;;;;;;;;;;5029348;28;20203;-81
2022/01/06 12:39:57;;;;;;;0.00;0.00;;;;;;;;;;5027511;28;20193;-79
2022/01/06 12:42:25;;;;;;;1.03;1.03;;;;;;;;;;5027577;28;20560;-74
2022/01/06 12:44:54;;;;;;;0.00;0.00;;;;;;;;;;5028371;28;20200;-73
2022/01/06 12:47:22;;;;;;;0.13;0.13;;;;;;;;;;5027308;28;20283;-81
2022/01/06 12:49:49;;;;;;;0.10;0.10;;;;;;;;;;5027392;28;20640;-78
2022/01/06 12:52:18;;;;;;;0.47;0.47;;;;;;;;;;5027877;28;20204;-77
2022/01/06 12:54:45;;;;;;;0.53;0.20;;;;;;;;;;5029218;28;20259;-76
2022/01/06 12:57:13;;;;;;;0.10;0.10;;;;;;;;;;5028095;28;20204;-75
2022/01/06 12:59:45;;;;;;;0.10;0.10;;;;;;;;;;5028266;28;20200;-79
2022/01/06 13:02:15;;;;;;;2.53;1.43;;;;;;;;;;5028621;28;20212;-76
2022/01/06 13:04:45;;;;;;;10.93;0.87;;;;;;;;;;5025920;28;20216;-73
2022/01/06 13:07:13;;;;;;;0.50;0.50;;;;;;;;;;5023017;28;20204;-72
2022/01/06 13:09:42;;;;;;;0.30;0.30;;;;;;;;;;5028377;28;20228;-72
2022/01/06 13:12:11;;;;;;;0.87;0.60;;;;;;;;;;5028577;28;20208;-76
2022/01/06 13:14:43;;;;;;;0.50;0.50;;;;;;;;;;5028596;28;20311;-80
2022/01/06 13:17:12;;;;;;;0.20;0.10;;;;;;;;;;5025452;28;20212;-76
2022/01/06 13:19:43;;;;;;;0.00;0.00;;;;;;;;;;5027789;28;20200;-77
2022/01/06 13:22:16;;;;;;;0.00;0.00;;;;;;;;;;5026717;28;20248;-74
2022/01/06 13:24:45;;;;;;;0.10;0.10;;;;;;;;;;5027537;28;20291;-75
2022/01/06 13:27:13;;;;;;;0.37;0.37;;;;;;;;;;5028199;28;20279;-73
2022/01/06 13:29:42;;;;;;;0.10;0.10;;;;;;;;;;5025147;28;20243;-73
2022/01/06 13:32:11;;;;;;;1.60;0.90;;;;;;;;;;5028805;28;20212;-73
2022/01/06 13:34:40;;;;;;;0.30;0.30;;;;;;;;;;5027989;28;20201;-73
2022/01/06 13:37:11;;;;;;;1.60;0.40;;;;;;;;;;5029558;28;20208;-75
2022/01/06 13:39:40;;;;;;;0.50;0.50;;;;;;;;;;5023764;28;20279;-75
2022/01/06 13:42:10;;;;;;;0.00;0.00;;;;;;;;;;5027012;28;20552;-71
2022/01/06 13:44:38;;;;;;;0.57;0.37;;;;;;;;;;5023478;28;20212;-74
2022/01/06 13:47:11;;;;;;;0.00;0.00;;;;;;;;;;5024688;28;20349;-73
2022/01/06 13:52:25;;;;;;;0.30;0.13;;;;;;;;;;5026218;28;20223;-72
2022/01/06 13:54:53;;;;;;;7.73;0.87;;;;;;;;;;5028579;28;20679;-74
2022/01/06 13:57:22;;;;;;;0.00;0.00;;;;;;;;;;5027109;28;20204;-73
2022/01/06 13:59:49;;;;;;;0.00;0.00;;;;;;;;;;5028000;28;20192;-71
2022/01/06 14:02:17;;;;;;;2.07;0.30;;;;;;;;;;5027575;28;20661;-73
2022/01/06 14:04:45;;;;;;;0.83;0.73;;;;;;;;;;5028654;28;20204;-73
2022/01/06 14:07:13;;;;;;;0.60;0.20;;;;;;;;;;5027533;28;20200;-74
2022/01/06 14:09:41;;;;;;;0.30;0.30;;;;;;;;;;5026310;28;20224;-72
2022/01/06 14:12:09;;;;;;;0.10;0.10;;;;;;;;;;5028108;28;20208;-74
2022/01/06 14:14:38;;;;;;;0.00;0.00;;;;;;;;;;5027809;28;20532;-73
2022/01/06 14:17:05;;;;;;;0.10;0.10;;;;;;;;;;5026936;28;20211;-74
2022/01/06 14:19:38;;;;;;;0.00;0.00;;;;;;;;;;5027711;28;20645;-73
2022/01/06 14:22:07;;;;;;;1.03;0.67;;;;;;;;;;5029305;28;20232;-73
2022/01/06 14:24:35;;;;;;;0.00;0.00;;;;;;;;;;5020171;28;20254;-76
2022/01/06 14:27:03;;;;;;;0.00;0.00;;;;;;;;;;5029055;28;20721;-70
2022/01/06 14:29:31;;;;;;;0.10;0.10;;;;;;;;;;5024939;28;20705;-71
2022/01/06 14:32:00;;;;;;;0.00;0.00;;;;;;;;;;5025349;28;20207;-71
2022/01/06 14:34:27;;;;;;;0.20;0.20;;;;;;;;;;5027443;28;20861;-73
2022/01/06 14:36:55;;;;;;;0.00;0.00;;;;;;;;;;5030135;28;20209;-74
2022/01/06 14:39:22;;;;;;;0.10;0.10;;;;;;;;;;5023888;28;20201;-78
2022/01/06 14:41:50;;;;;;;0.00;0.00;;;;;;;;;;5024803;28;20208;-80
2022/01/06 14:44:17;;;;;;;1.20;0.53;;;;;;;;;;5028691;28;20223;-78
2022/01/06 14:46:46;;;;;;;1.07;0.97;;;;;;;;;;5026243;28;20204;-71
2022/01/06 14:49:15;;;;;;;0.80;0.80;;;;;;;;;;5026584;28;20315;-71
2022/01/06 14:51:42;;;;;;;0.10;0.10;;;;;;;;;;5023681;28;20196;-71
2022/01/06 14:54:10;;;;;;;2.63;0.50;;;;;;;;;;5025346;28;20203;-72
2022/01/06 14:56:37;;;;;;;1.57;1.50;;;;;;;;;;5024343;28;20572;-71
2022/01/06 14:59:05;;;;;;;0.83;0.83;;;;;;;;;;5032179;28;20204;-75
2022/01/06 15:01:32;;;;;;;0.20;0.20;;;;;;;;;;5028070;28;20197;-76